sensor_id;sensor_type;location;lat;lon;timestamp;P1;durP1;ratioP1;P2;durP2;ratioP2
22939;SDS011;11636;52.086;5.090;2023-05-07T00:00:13;16.88;;;14.00;;
22939;SDS011;11636;52.086;5.090;2023-05-07T00:03:09;13.85;;;12.35;;
22939;SDS011;11636;52.086;5.090;2023-05-07T00:06:04;12.75;;;11.38;;
22939;SDS011;11636;52.086;5.090;2023-05-07T00:08:52;13.27;;;11.60;;
22939;SDS011;11636;52.086;5.090;2023-05-07T00:11:46;15.80;;;12.15;;
22939;SDS011;11636;52.086;5.090;2023-05-07T00:14:33;13.20;;;10.77;;
22939;SDS011;11636;52.086;5.090;2023-05-07T00:17:27;12.77;;;11.25;;
22939;SDS011;11636;52.086;5.090;2023-05-07T00:20:14;13.40;;;11.90;;
22939;SDS011;11636;52.086;5.090;2023-05-07T00:23:08;12.63;;;11.32;;
22939;SDS011;11636;52.086;5.090;2023-05-07T00:25:56;11.50;;;10.30;;
22939;SDS011;11636;52.086;5.090;2023-05-07T00:28:50;12.55;;;10.52;;
22939;SDS011;11636;52.086;5.090;2023-05-07T00:31:37;10.20;;;9.10;;
22939;SDS011;11636;52.086;5.090;2023-05-07T00:34:31;10.75;;;9.65;;
22939;SDS011;11636;52.086;5.090;2023-05-07T00:37:18;9.82;;;8.70;;
22939;SDS011;11636;52.086;5.090;2023-05-07T00:40:12;8.93;;;8.02;;
22939;SDS011;11636;52.086;5.090;2023-05-07T00:43:06;8.88;;;7.53;;
22939;SDS011;11636;52.086;5.090;2023-05-07T00:45:53;8.80;;;7.82;;
22939;SDS011;11636;52.086;5.090;2023-05-07T00:48:47;9.23;;;8.27;;
22939;SDS011;11636;52.086;5.090;2023-05-07T00:51:35;8.68;;;7.47;;
22939;SDS011;11636;52.086;5.090;2023-05-07T00:54:29;8.05;;;7.25;;
22939;SDS011;11636;52.086;5.090;2023-05-07T00:57:16;9.05;;;7.82;;
22939;SDS011;11636;52.086;5.090;2023-05-07T01:00:10;8.25;;;7.38;;
22939;SDS011;11636;52.086;5.090;2023-05-07T01:02:59;8.07;;;7.28;;
22939;SDS011;11636;52.086;5.090;2023-05-07T01:05:54;7.50;;;6.55;;
22939;SDS011;11636;52.086;5.090;2023-05-07T01:08:44;8.07;;;6.88;;
22939;SDS011;11636;52.086;5.090;2023-05-07T01:11:38;8.30;;;6.93;;
22939;SDS011;11636;52.086;5.090;2023-05-07T01:14:26;7.20;;;6.50;;
22939;SDS011;11636;52.086;5.090;2023-05-07T01:17:20;9.13;;;7.20;;
22939;SDS011;11636;52.086;5.090;2023-05-07T01:20:14;8.55;;;7.65;;
22939;SDS011;11636;52.086;5.090;2023-05-07T01:23:02;6.97;;;6.28;;
22939;SDS011;11636;52.086;5.090;2023-05-07T01:25:56;7.82;;;7.03;;
22939;SDS011;11636;52.086;5.090;2023-05-07T01:28:43;7.60;;;6.65;;
22939;SDS011;11636;52.086;5.090;2023-05-07T01:31:37;7.80;;;7.00;;
22939;SDS011;11636;52.086;5.090;2023-05-07T01:34:27;8.65;;;6.70;;
22939;SDS011;11636;52.086;5.090;2023-05-07T01:37:23;7.45;;;6.35;;
22939;SDS011;11636;52.086;5.090;2023-05-07T01:40:12;8.50;;;6.85;;
22939;SDS011;11636;52.086;5.090;2023-05-07T01:43:09;7.75;;;6.95;;
22939;SDS011;11636;52.086;5.090;2023-05-07T01:46:06;7.13;;;6.38;;
22939;SDS011;11636;52.086;5.090;2023-05-07T01:49:02;7.82;;;7.03;;
22939;SDS011;11636;52.086;5.090;2023-05-07T01:51:56;7.07;;;6.38;;
22939;SDS011;11636;52.086;5.090;2023-05-07T01:54:45;8.27;;;7.03;;
22939;SDS011;11636;52.086;5.090;2023-05-07T01:57:38;8.25;;;6.90;;
22939;SDS011;11636;52.086;5.090;2023-05-07T02:00:25;9.13;;;6.75;;
22939;SDS011;11636;52.086;5.090;2023-05-07T02:03:19;7.82;;;6.47;;
22939;SDS011;11636;52.086;5.090;2023-05-07T02:06:13;6.05;;;5.45;;
22939;SDS011;11636;52.086;5.090;2023-05-07T02:09:00;7.55;;;6.60;;
22939;SDS011;11636;52.086;5.090;2023-05-07T02:11:54;8.50;;;6.78;;
22939;SDS011;11636;52.086;5.090;2023-05-07T02:14:48;9.20;;;7.65;;
22939;SDS011;11636;52.086;5.090;2023-05-07T02:17:38;8.07;;;6.95;;
22939;SDS011;11636;52.086;5.090;2023-05-07T02:20:50;7.88;;;7.07;;
22939;SDS011;11636;52.086;5.090;2023-05-07T02:23:44;10.20;;;7.85;;
22939;SDS011;11636;52.086;5.090;2023-05-07T02:26:32;8.15;;;6.40;;
22939;SDS011;11636;52.086;5.090;2023-05-07T02:29:25;7.07;;;6.10;;
22939;SDS011;11636;52.086;5.090;2023-05-07T02:32:19;6.60;;;6.00;;
22939;SDS011;11636;52.086;5.090;2023-05-07T02:35:06;7.05;;;6.28;;
22939;SDS011;11636;52.086;5.090;2023-05-07T02:38:00;7.57;;;6.78;;
22939;SDS011;11636;52.086;5.090;2023-05-07T02:40:54;6.63;;;5.85;;
22939;SDS011;11636;52.086;5.090;2023-05-07T02:43:48;8.05;;;6.65;;
22939;SDS011;11636;52.086;5.090;2023-05-07T02:46:55;6.38;;;5.78;;
22939;SDS011;11636;52.086;5.090;2023-05-07T02:49:56;6.97;;;6.22;;
22939;SDS011;11636;52.086;5.090;2023-05-07T02:52:50;7.43;;;6.05;;
22939;SDS011;11636;52.086;5.090;2023-05-07T02:55:44;6.03;;;5.43;;
22939;SDS011;11636;52.086;5.090;2023-05-07T02:58:38;6.13;;;5.13;;
22939;SDS011;11636;52.086;5.090;2023-05-07T03:01:34;7.40;;;6.57;;
22939;SDS011;11636;52.086;5.090;2023-05-07T03:04:28;8.27;;;6.72;;
22939;SDS011;11636;52.086;5.090;2023-05-07T03:07:15;7.80;;;6.47;;
22939;SDS011;11636;52.086;5.090;2023-05-07T03:10:09;7.85;;;7.05;;
22939;SDS011;11636;52.086;5.090;2023-05-07T03:12:57;7.32;;;6.63;;
22939;SDS011;11636;52.086;5.090;2023-05-07T03:15:50;7.88;;;7.07;;
22939;SDS011;11636;52.086;5.090;2023-05-07T03:18:37;9.27;;;7.93;;
22939;SDS011;11636;52.086;5.090;2023-05-07T03:21:31;8.57;;;7.53;;
22939;SDS011;11636;52.086;5.090;2023-05-07T03:24:20;7.85;;;7.05;;
22939;SDS011;11636;52.086;5.090;2023-05-07T03:27:13;9.45;;;8.45;;
22939;SDS011;11636;52.086;5.090;2023-05-07T03:30:01;10.18;;;8.68;;
22939;SDS011;11636;52.086;5.090;2023-05-07T03:32:54;8.75;;;7.57;;
22939;SDS011;11636;52.086;5.090;2023-05-07T03:35:48;7.95;;;6.75;;
22939;SDS011;11636;52.086;5.090;2023-05-07T03:38:42;8.68;;;7.78;;
22939;SDS011;11636;52.086;5.090;2023-05-07T03:41:36;8.68;;;7.78;;
22939;SDS011;11636;52.086;5.090;2023-05-07T03:44:23;9.27;;;8.23;;
22939;SDS011;11636;52.086;5.090;2023-05-07T03:47:17;8.85;;;7.90;;
22939;SDS011;11636;52.086;5.090;2023-05-07T03:50:04;8.98;;;7.85;;
22939;SDS011;11636;52.086;5.090;2023-05-07T03:53:06;8.32;;;7.18;;
22939;SDS011;11636;52.086;5.090;2023-05-07T03:56:06;9.73;;;8.05;;
22939;SDS011;11636;52.086;5.090;2023-05-07T03:58:53;8.10;;;7.30;;
22939;SDS011;11636;52.086;5.090;2023-05-07T04:01:47;9.43;;;7.88;;
22939;SDS011;11636;52.086;5.090;2023-05-07T04:04:37;9.85;;;7.78;;
22939;SDS011;11636;52.086;5.090;2023-05-07T04:07:31;8.57;;;7.47;;
22939;SDS011;11636;52.086;5.090;2023-05-07T04:10:18;9.57;;;7.97;;
22939;SDS011;11636;52.086;5.090;2023-05-07T04:13:12;8.77;;;7.68;;
22939;SDS011;11636;52.086;5.090;2023-05-07T04:16:01;8.43;;;7.53;;
22939;SDS011;11636;52.086;5.090;2023-05-07T04:18:55;8.82;;;7.70;;
22939;SDS011;11636;52.086;5.090;2023-05-07T04:21:42;9.60;;;8.27;;
22939;SDS011;11636;52.086;5.090;2023-05-07T04:24:36;8.63;;;7.70;;
22939;SDS011;11636;52.086;5.090;2023-05-07T04:27:30;10.18;;;8.77;;
22939;SDS011;11636;52.086;5.090;2023-05-07T04:30:18;7.55;;;6.65;;
22939;SDS011;11636;52.086;5.090;2023-05-07T04:33:13;11.05;;;9.15;;
22939;SDS011;11636;52.086;5.090;2023-05-07T04:36:03;10.25;;;9.18;;
22939;SDS011;11636;52.086;5.090;2023-05-07T04:38:57;10.27;;;9.15;;
22939;SDS011;11636;52.086;5.090;2023-05-07T04:41:44;8.70;;;7.70;;
22939;SDS011;11636;52.086;5.090;2023-05-07T04:44:38;9.38;;;8.02;;
22939;SDS011;11636;52.086;5.090;2023-05-07T04:47:25;7.88;;;7.07;;
22939;SDS011;11636;52.086;5.090;2023-05-07T04:50:19;8.23;;;7.30;;
22939;SDS011;11636;52.086;5.090;2023-05-07T04:53:16;8.75;;;7.30;;
22939;SDS011;11636;52.086;5.090;2023-05-07T04:56:10;8.80;;;7.60;;
22939;SDS011;11636;52.086;5.090;2023-05-07T04:59:04;8.80;;;7.47;;
22939;SDS011;11636;52.086;5.090;2023-05-07T05:01:52;7.53;;;6.43;;
22939;SDS011;11636;52.086;5.090;2023-05-07T05:04:45;7.82;;;7.03;;
22939;SDS011;11636;52.086;5.090;2023-05-07T05:07:32;7.93;;;6.65;;
22939;SDS011;11636;52.086;5.090;2023-05-07T05:10:26;6.85;;;6.15;;
22939;SDS011;11636;52.086;5.090;2023-05-07T05:13:14;7.88;;;7.07;;
22939;SDS011;11636;52.086;5.090;2023-05-07T05:16:08;9.00;;;7.93;;
22939;SDS011;11636;52.086;5.090;2023-05-07T05:18:55;7.80;;;6.85;;
22939;SDS011;11636;52.086;5.090;2023-05-07T05:21:48;8.50;;;7.25;;
22939;SDS011;11636;52.086;5.090;2023-05-07T05:24:35;9.13;;;8.20;;
22939;SDS011;11636;52.086;5.090;2023-05-07T05:27:29;8.43;;;7.18;;
22939;SDS011;11636;52.086;5.090;2023-05-07T05:30:23;8.13;;;7.15;;
22939;SDS011;11636;52.086;5.090;2023-05-07T05:33:10;8.23;;;7.43;;
22939;SDS011;11636;52.086;5.090;2023-05-07T05:36:04;8.60;;;7.65;;
22939;SDS011;11636;52.086;5.090;2023-05-07T05:38:52;7.05;;;6.15;;
22939;SDS011;11636;52.086;5.090;2023-05-07T05:41:45;8.85;;;7.95;;
22939;SDS011;11636;52.086;5.090;2023-05-07T05:44:32;9.80;;;8.80;;
22939;SDS011;11636;52.086;5.090;2023-05-07T05:47:26;9.18;;;8.23;;
22939;SDS011;11636;52.086;5.090;2023-05-07T05:50:13;7.50;;;6.30;;
22939;SDS011;11636;52.086;5.090;2023-05-07T05:53:07;9.77;;;8.77;;
22939;SDS011;11636;52.086;5.090;2023-05-07T05:55:54;8.95;;;8.05;;
22939;SDS011;11636;52.086;5.090;2023-05-07T05:58:49;8.98;;;7.72;;
22939;SDS011;11636;52.086;5.090;2023-05-07T06:01:36;9.60;;;8.45;;
22939;SDS011;11636;52.086;5.090;2023-05-07T06:04:29;8.02;;;7.20;;
22939;SDS011;11636;52.086;5.090;2023-05-07T06:07:23;10.30;;;8.95;;
22939;SDS011;11636;52.086;5.090;2023-05-07T06:10:11;9.40;;;8.10;;
22939;SDS011;11636;52.086;5.090;2023-05-07T06:13:04;10.45;;;9.15;;
22939;SDS011;11636;52.086;5.090;2023-05-07T06:15:52;7.43;;;6.50;;
22939;SDS011;11636;52.086;5.090;2023-05-07T06:18:45;9.38;;;8.10;;
22939;SDS011;11636;52.086;5.090;2023-05-07T06:21:33;8.50;;;7.32;;
22939;SDS011;11636;52.086;5.090;2023-05-07T06:24:27;6.90;;;6.20;;
22939;SDS011;11636;52.086;5.090;2023-05-07T06:27:14;9.80;;;8.75;;
22939;SDS011;11636;52.086;5.090;2023-05-07T06:30:08;11.25;;;8.98;;
22939;SDS011;11636;52.086;5.090;2023-05-07T06:33:01;11.68;;;10.00;;
22939;SDS011;11636;52.086;5.090;2023-05-07T06:35:49;9.60;;;8.60;;
22939;SDS011;11636;52.086;5.090;2023-05-07T06:38:42;7.45;;;6.65;;
22939;SDS011;11636;52.086;5.090;2023-05-07T06:41:30;8.23;;;7.13;;
22939;SDS011;11636;52.086;5.090;2023-05-07T06:44:23;7.30;;;6.53;;
22939;SDS011;11636;52.086;5.090;2023-05-07T06:47:11;8.00;;;7.00;;
22939;SDS011;11636;52.086;5.090;2023-05-07T06:50:05;6.03;;;4.93;;
22939;SDS011;11636;52.086;5.090;2023-05-07T06:52:52;7.72;;;6.45;;
22939;SDS011;11636;52.086;5.090;2023-05-07T06:55:45;6.07;;;5.47;;
22939;SDS011;11636;52.086;5.090;2023-05-07T06:58:39;7.68;;;6.80;;
22939;SDS011;11636;52.086;5.090;2023-05-07T07:01:27;7.15;;;5.32;;
22939;SDS011;11636;52.086;5.090;2023-05-07T07:04:23;7.65;;;6.50;;
22939;SDS011;11636;52.086;5.090;2023-05-07T07:07:11;8.35;;;7.22;;
22939;SDS011;11636;52.086;5.090;2023-05-07T07:10:05;8.20;;;7.22;;
22939;SDS011;11636;52.086;5.090;2023-05-07T07:12:52;9.57;;;8.52;;
22939;SDS011;11636;52.086;5.090;2023-05-07T07:15:47;7.57;;;6.43;;
22939;SDS011;11636;52.086;5.090;2023-05-07T07:18:34;8.35;;;6.85;;
22939;SDS011;11636;52.086;5.090;2023-05-07T07:21:29;7.40;;;6.20;;
22939;SDS011;11636;52.086;5.090;2023-05-07T07:24:23;6.47;;;5.53;;
22939;SDS011;11636;52.086;5.090;2023-05-07T07:27:11;5.72;;;4.97;;
22939;SDS011;11636;52.086;5.090;2023-05-07T07:30:05;7.03;;;5.43;;
22939;SDS011;11636;52.086;5.090;2023-05-07T07:32:53;6.18;;;5.40;;
22939;SDS011;11636;52.086;5.090;2023-05-07T07:35:48;6.30;;;5.68;;
22939;SDS011;11636;52.086;5.090;2023-05-07T07:38:35;7.32;;;6.22;;
22939;SDS011;11636;52.086;5.090;2023-05-07T07:41:29;6.38;;;5.50;;
22939;SDS011;11636;52.086;5.090;2023-05-07T07:44:16;7.47;;;5.75;;
22939;SDS011;11636;52.086;5.090;2023-05-07T07:47:10;8.77;;;7.53;;
22939;SDS011;11636;52.086;5.090;2023-05-07T07:49:57;10.23;;;8.57;;
22939;SDS011;11636;52.086;5.090;2023-05-07T07:52:51;6.55;;;5.63;;
22939;SDS011;11636;52.086;5.090;2023-05-07T07:55:41;7.85;;;6.53;;
22939;SDS011;11636;52.086;5.090;2023-05-07T07:58:34;6.75;;;5.70;;
22939;SDS011;11636;52.086;5.090;2023-05-07T08:01:30;11.20;;;9.90;;
22939;SDS011;11636;52.086;5.090;2023-05-07T08:04:17;9.60;;;8.20;;
22939;SDS011;11636;52.086;5.090;2023-05-07T08:07:11;8.75;;;7.45;;
22939;SDS011;11636;52.086;5.090;2023-05-07T08:09:58;7.85;;;7.00;;
22939;SDS011;11636;52.086;5.090;2023-05-07T08:12:52;7.32;;;5.95;;
22939;SDS011;11636;52.086;5.090;2023-05-07T08:15:39;7.45;;;5.25;;
22939;SDS011;11636;52.086;5.090;2023-05-07T08:18:33;7.22;;;5.95;;
22939;SDS011;11636;52.086;5.090;2023-05-07T08:21:20;9.02;;;7.55;;
22939;SDS011;11636;52.086;5.090;2023-05-07T08:24:14;7.45;;;6.05;;
22939;SDS011;11636;52.086;5.090;2023-05-07T08:27:08;9.60;;;7.85;;
22939;SDS011;11636;52.086;5.090;2023-05-07T08:29:55;7.68;;;6.65;;
22939;SDS011;11636;52.086;5.090;2023-05-07T08:32:48;10.40;;;8.88;;
22939;SDS011;11636;52.086;5.090;2023-05-07T08:35:36;8.43;;;6.90;;
22939;SDS011;11636;52.086;5.090;2023-05-07T08:38:30;5.63;;;4.75;;
22939;SDS011;11636;52.086;5.090;2023-05-07T08:41:17;6.70;;;5.43;;
22939;SDS011;11636;52.086;5.090;2023-05-07T08:44:12;7.20;;;5.60;;
22939;SDS011;11636;52.086;5.090;2023-05-07T08:47:02;8.02;;;6.88;;
22939;SDS011;11636;52.086;5.090;2023-05-07T08:50:00;7.72;;;5.65;;
22939;SDS011;11636;52.086;5.090;2023-05-07T08:52:48;5.57;;;4.82;;
22939;SDS011;11636;52.086;5.090;2023-05-07T08:55:43;6.97;;;5.07;;
22939;SDS011;11636;52.086;5.090;2023-05-07T08:58:38;6.63;;;5.75;;
22939;SDS011;11636;52.086;5.090;2023-05-07T09:01:26;5.53;;;4.43;;
22939;SDS011;11636;52.086;5.090;2023-05-07T09:04:20;7.70;;;6.32;;
22939;SDS011;11636;52.086;5.090;2023-05-07T09:07:07;5.13;;;3.80;;
22939;SDS011;11636;52.086;5.090;2023-05-07T09:10:02;5.35;;;4.55;;
22939;SDS011;11636;52.086;5.090;2023-05-07T09:12:57;5.88;;;4.72;;
22939;SDS011;11636;52.086;5.090;2023-05-07T09:15:51;7.40;;;5.43;;
22939;SDS011;11636;52.086;5.090;2023-05-07T09:18:41;5.78;;;5.00;;
22939;SDS011;11636;52.086;5.090;2023-05-07T09:21:36;5.68;;;4.22;;
22939;SDS011;11636;52.086;5.090;2023-05-07T09:24:23;4.40;;;3.42;;
22939;SDS011;11636;52.086;5.090;2023-05-07T09:27:18;4.80;;;3.50;;
22939;SDS011;11636;52.086;5.090;2023-05-07T09:30:06;5.45;;;3.70;;
22939;SDS011;11636;52.086;5.090;2023-05-07T09:33:02;5.25;;;4.35;;
22939;SDS011;11636;52.086;5.090;2023-05-07T09:35:56;5.18;;;4.05;;
22939;SDS011;11636;52.086;5.090;2023-05-07T09:38:43;4.45;;;3.53;;
22939;SDS011;11636;52.086;5.090;2023-05-07T09:41:44;5.10;;;3.85;;
22939;SDS011;11636;52.086;5.090;2023-05-07T09:44:33;4.80;;;2.50;;
22939;SDS011;11636;52.086;5.090;2023-05-07T09:47:27;6.88;;;4.78;;
22939;SDS011;11636;52.086;5.090;2023-05-07T09:50:28;5.47;;;4.32;;
22939;SDS011;11636;52.086;5.090;2023-05-07T09:53:29;4.07;;;2.95;;
22939;SDS011;11636;52.086;5.090;2023-05-07T09:56:25;4.40;;;2.92;;
22939;SDS011;11636;52.086;5.090;2023-05-07T09:59:14;5.70;;;3.63;;
22939;SDS011;11636;52.086;5.090;2023-05-07T10:02:09;4.50;;;3.20;;
22939;SDS011;11636;52.086;5.090;2023-05-07T10:05:04;4.10;;;2.65;;
22939;SDS011;11636;52.086;5.090;2023-05-07T10:07:59;5.88;;;4.13;;
22939;SDS011;11636;52.086;5.090;2023-05-07T10:10:54;4.25;;;2.30;;
22939;SDS011;11636;52.086;5.090;2023-05-07T10:13:41;5.28;;;3.00;;
22939;SDS011;11636;52.086;5.090;2023-05-07T10:16:36;5.75;;;2.72;;
22939;SDS011;11636;52.086;5.090;2023-05-07T10:19:24;3.35;;;2.42;;
22939;SDS011;11636;52.086;5.090;2023-05-07T10:22:19;3.85;;;2.65;;
22939;SDS011;11636;52.086;5.090;2023-05-07T10:25:16;2.90;;;1.95;;
22939;SDS011;11636;52.086;5.090;2023-05-07T10:28:16;3.50;;;1.90;;
22939;SDS011;11636;52.086;5.090;2023-05-07T10:31:24;3.47;;;2.05;;
22939;SDS011;11636;52.086;5.090;2023-05-07T10:34:25;4.65;;;2.40;;
22939;SDS011;11636;52.086;5.090;2023-05-07T10:37:23;3.17;;;1.65;;
22939;SDS011;11636;52.086;5.090;2023-05-07T10:40:11;3.17;;;1.85;;
22939;SDS011;11636;52.086;5.090;2023-05-07T10:43:05;2.70;;;1.20;;
22939;SDS011;11636;52.086;5.090;2023-05-07T10:46:13;2.35;;;1.42;;
22939;SDS011;11636;52.086;5.090;2023-05-07T10:49:09;2.50;;;1.40;;
22939;SDS011;11636;52.086;5.090;2023-05-07T10:52:14;1.88;;;0.98;;
22939;SDS011;11636;52.086;5.090;2023-05-07T11:01:26;2.45;;;1.33;;
22939;SDS011;11636;52.086;5.090;2023-05-07T11:08:15;4.57;;;2.65;;
22939;SDS011;11636;52.086;5.090;2023-05-07T11:11:02;2.67;;;1.40;;
22939;SDS011;11636;52.086;5.090;2023-05-07T11:13:57;3.22;;;1.83;;
22939;SDS011;11636;52.086;5.090;2023-05-07T11:16:52;2.65;;;1.25;;
22939;SDS011;11636;52.086;5.090;2023-05-07T11:19:56;3.90;;;2.50;;
22939;SDS011;11636;52.086;5.090;2023-05-07T11:22:43;3.83;;;2.10;;
22939;SDS011;11636;52.086;5.090;2023-05-07T11:25:37;3.83;;;1.92;;
22939;SDS011;11636;52.086;5.090;2023-05-07T11:28:25;3.88;;;1.85;;
22939;SDS011;11636;52.086;5.090;2023-05-07T11:31:33;3.70;;;1.80;;
22939;SDS011;11636;52.086;5.090;2023-05-07T11:34:21;3.75;;;1.60;;
22939;SDS011;11636;52.086;5.090;2023-05-07T11:37:16;2.55;;;1.20;;
22939;SDS011;11636;52.086;5.090;2023-05-07T11:40:11;3.00;;;1.48;;
22939;SDS011;11636;52.086;5.090;2023-05-07T11:43:09;3.75;;;1.98;;
22939;SDS011;11636;52.086;5.090;2023-05-07T11:46:05;4.70;;;2.25;;
22939;SDS011;11636;52.086;5.090;2023-05-07T11:48:54;5.78;;;2.92;;
22939;SDS011;11636;52.086;5.090;2023-05-07T11:51:49;3.97;;;1.73;;
22939;SDS011;11636;52.086;5.090;2023-05-07T11:54:37;4.13;;;1.80;;
22939;SDS011;11636;52.086;5.090;2023-05-07T11:57:32;3.67;;;1.90;;
22939;SDS011;11636;52.086;5.090;2023-05-07T12:00:21;4.07;;;1.73;;
22939;SDS011;11636;52.086;5.090;2023-05-07T12:03:14;3.35;;;1.40;;
22939;SDS011;11636;52.086;5.090;2023-05-07T12:06:08;4.15;;;1.85;;
22939;SDS011;11636;52.086;5.090;2023-05-07T12:08:56;3.47;;;2.15;;
22939;SDS011;11636;52.086;5.090;2023-05-07T12:11:51;3.35;;;1.80;;
22939;SDS011;11636;52.086;5.090;2023-05-07T12:14:42;3.42;;;1.60;;
22939;SDS011;11636;52.086;5.090;2023-05-07T12:17:37;4.25;;;2.20;;
22939;SDS011;11636;52.086;5.090;2023-05-07T12:20:31;6.15;;;3.42;;
22939;SDS011;11636;52.086;5.090;2023-05-07T12:23:20;4.13;;;2.42;;
22939;SDS011;11636;52.086;5.090;2023-05-07T12:26:14;4.05;;;2.22;;
22939;SDS011;11636;52.086;5.090;2023-05-07T12:29:01;3.40;;;1.55;;
22939;SDS011;11636;52.086;5.090;2023-05-07T12:31:56;3.38;;;2.10;;
22939;SDS011;11636;52.086;5.090;2023-05-07T12:34:52;3.05;;;1.80;;
22939;SDS011;11636;52.086;5.090;2023-05-07T12:37:40;3.47;;;1.80;;
22939;SDS011;11636;52.086;5.090;2023-05-07T12:40:38;3.78;;;1.63;;
22939;SDS011;11636;52.086;5.090;2023-05-07T12:43:33;4.22;;;2.17;;
22939;SDS011;11636;52.086;5.090;2023-05-07T12:46:27;3.63;;;2.00;;
22939;SDS011;11636;52.086;5.090;2023-05-07T12:49:14;4.60;;;2.03;;
22939;SDS011;11636;52.086;5.090;2023-05-07T12:52:10;3.55;;;1.90;;
22939;SDS011;11636;52.086;5.090;2023-05-07T12:55:04;3.65;;;2.10;;
22939;SDS011;11636;52.086;5.090;2023-05-07T12:58:00;7.10;;;3.47;;
22939;SDS011;11636;52.086;5.090;2023-05-07T13:00:49;5.63;;;3.42;;
22939;SDS011;11636;52.086;5.090;2023-05-07T13:03:48;4.50;;;2.85;;
22939;SDS011;11636;52.086;5.090;2023-05-07T13:06:43;5.07;;;2.72;;
22939;SDS011;11636;52.086;5.090;2023-05-07T13:09:37;5.30;;;3.78;;
22939;SDS011;11636;52.086;5.090;2023-05-07T13:12:24;6.10;;;3.45;;
22939;SDS011;11636;52.086;5.090;2023-05-07T13:15:18;6.25;;;4.00;;
22939;SDS011;11636;52.086;5.090;2023-05-07T13:18:12;4.78;;;3.33;;
22939;SDS011;11636;52.086;5.090;2023-05-07T13:21:00;6.97;;;4.22;;
22939;SDS011;11636;52.086;5.090;2023-05-07T13:23:54;4.20;;;2.92;;
22939;SDS011;11636;52.086;5.090;2023-05-07T13:26:41;6.97;;;3.70;;
22939;SDS011;11636;52.086;5.090;2023-05-07T13:29:35;5.85;;;3.25;;
22939;SDS011;11636;52.086;5.090;2023-05-07T13:32:29;4.68;;;3.50;;
22939;SDS011;11636;52.086;5.090;2023-05-07T13:35:16;5.13;;;2.70;;
22939;SDS011;11636;52.086;5.090;2023-05-07T13:38:10;5.50;;;2.92;;
22939;SDS011;11636;52.086;5.090;2023-05-07T13:41:04;5.78;;;2.90;;
22939;SDS011;11636;52.086;5.090;2023-05-07T13:43:58;6.13;;;2.00;;
22939;SDS011;11636;52.086;5.090;2023-05-07T13:46:45;3.75;;;1.65;;
22939;SDS011;11636;52.086;5.090;2023-05-07T13:49:39;5.50;;;2.85;;
22939;SDS011;11636;52.086;5.090;2023-05-07T13:52:26;6.95;;;3.35;;
22939;SDS011;11636;52.086;5.090;2023-05-07T13:55:20;4.10;;;2.17;;
22939;SDS011;11636;52.086;5.090;2023-05-07T13:58:15;8.18;;;3.20;;
22939;SDS011;11636;52.086;5.090;2023-05-07T14:01:09;5.85;;;2.80;;
22939;SDS011;11636;52.086;5.090;2023-05-07T14:03:56;5.05;;;2.13;;
22939;SDS011;11636;52.086;5.090;2023-05-07T14:06:53;4.63;;;2.00;;
22939;SDS011;11636;52.086;5.090;2023-05-07T14:09:40;5.32;;;1.92;;
22939;SDS011;11636;52.086;5.090;2023-05-07T14:12:34;5.50;;;1.92;;
22939;SDS011;11636;52.086;5.090;2023-05-07T14:15:21;4.97;;;2.10;;
22939;SDS011;11636;52.086;5.090;2023-05-07T14:18:15;4.57;;;1.70;;
22939;SDS011;11636;52.086;5.090;2023-05-07T14:21:03;4.25;;;1.73;;
22939;SDS011;11636;52.086;5.090;2023-05-07T14:24:02;5.20;;;2.10;;
22939;SDS011;11636;52.086;5.090;2023-05-07T14:26:56;3.83;;;1.50;;
22939;SDS011;11636;52.086;5.090;2023-05-07T14:29:50;8.02;;;3.45;;
22939;SDS011;11636;52.086;5.090;2023-05-07T14:32:44;8.43;;;5.13;;
22939;SDS011;11636;52.086;5.090;2023-05-07T14:35:44;10.50;;;8.02;;
22939;SDS011;11636;52.086;5.090;2023-05-07T14:38:35;9.88;;;6.50;;
22939;SDS011;11636;52.086;5.090;2023-05-07T14:41:28;11.05;;;8.23;;
22939;SDS011;11636;52.086;5.090;2023-05-07T14:44:15;12.13;;;7.78;;
22939;SDS011;11636;52.086;5.090;2023-05-07T14:47:10;11.05;;;7.47;;
22939;SDS011;11636;52.086;5.090;2023-05-07T14:49:57;6.85;;;5.47;;
22939;SDS011;11636;52.086;5.090;2023-05-07T14:52:51;10.43;;;6.75;;
22939;SDS011;11636;52.086;5.090;2023-05-07T14:55:46;10.75;;;6.65;;
22939;SDS011;11636;52.086;5.090;2023-05-07T14:58:34;15.35;;;8.35;;
22939;SDS011;11636;52.086;5.090;2023-05-07T15:01:27;18.05;;;9.55;;
22939;SDS011;11636;52.086;5.090;2023-05-07T15:04:21;15.52;;;10.48;;
22939;SDS011;11636;52.086;5.090;2023-05-07T15:07:10;12.48;;;9.70;;
22939;SDS011;11636;52.086;5.090;2023-05-07T15:10:03;15.45;;;11.20;;
22939;SDS011;11636;52.086;5.090;2023-05-07T15:12:51;16.38;;;11.40;;
22939;SDS011;11636;52.086;5.090;2023-05-07T15:15:44;12.45;;;10.15;;
22939;SDS011;11636;52.086;5.090;2023-05-07T15:18:38;12.15;;;8.95;;
22939;SDS011;11636;52.086;5.090;2023-05-07T15:21:32;10.25;;;8.10;;
22939;SDS011;11636;52.086;5.090;2023-05-07T15:24:30;15.15;;;8.75;;
22939;SDS011;11636;52.086;5.090;2023-05-07T15:27:24;10.50;;;7.72;;
22939;SDS011;11636;52.086;5.090;2023-05-07T15:30:12;9.80;;;7.53;;
22939;SDS011;11636;52.086;5.090;2023-05-07T15:33:07;13.05;;;8.52;;
22939;SDS011;11636;52.086;5.090;2023-05-07T15:35:55;12.57;;;8.57;;
22939;SDS011;11636;52.086;5.090;2023-05-07T15:38:51;11.98;;;8.02;;
22939;SDS011;11636;52.086;5.090;2023-05-07T15:41:40;11.00;;;7.50;;
22939;SDS011;11636;52.086;5.090;2023-05-07T15:44:33;10.57;;;8.88;;
22939;SDS011;11636;52.086;5.090;2023-05-07T15:47:21;8.52;;;7.20;;
22939;SDS011;11636;52.086;5.090;2023-05-07T15:50:15;8.93;;;7.25;;
22939;SDS011;11636;52.086;5.090;2023-05-07T15:53:09;8.25;;;6.70;;
22939;SDS011;11636;52.086;5.090;2023-05-07T15:55:59;9.60;;;7.93;;
22939;SDS011;11636;52.086;5.090;2023-05-07T15:58:52;8.73;;;6.85;;
22939;SDS011;11636;52.086;5.090;2023-05-07T16:01:46;7.15;;;5.60;;
22939;SDS011;11636;52.086;5.090;2023-05-07T16:04:40;7.20;;;5.53;;
22939;SDS011;11636;52.086;5.090;2023-05-07T16:07:28;8.65;;;6.93;;
22939;SDS011;11636;52.086;5.090;2023-05-07T16:10:21;10.27;;;7.25;;
22939;SDS011;11636;52.086;5.090;2023-05-07T16:13:09;7.32;;;5.47;;
22939;SDS011;11636;52.086;5.090;2023-05-07T16:16:04;6.10;;;4.78;;
22939;SDS011;11636;52.086;5.090;2023-05-07T16:18:52;7.47;;;5.57;;
22939;SDS011;11636;52.086;5.090;2023-05-07T16:21:46;6.47;;;5.00;;
22939;SDS011;11636;52.086;5.090;2023-05-07T16:24:33;5.65;;;4.50;;
22939;SDS011;11636;52.086;5.090;2023-05-07T16:27:26;5.35;;;4.20;;
22939;SDS011;11636;52.086;5.090;2023-05-07T16:30:13;5.03;;;3.45;;
22939;SDS011;11636;52.086;5.090;2023-05-07T16:33:07;6.45;;;3.65;;
22939;SDS011;11636;52.086;5.090;2023-05-07T16:35:55;3.97;;;2.78;;
22939;SDS011;11636;52.086;5.090;2023-05-07T16:38:48;4.72;;;3.30;;
22939;SDS011;11636;52.086;5.090;2023-05-07T16:41:42;4.68;;;3.20;;
22939;SDS011;11636;52.086;5.090;2023-05-07T16:44:40;4.38;;;2.90;;
22939;SDS011;11636;52.086;5.090;2023-05-07T16:47:27;3.58;;;2.22;;
22939;SDS011;11636;52.086;5.090;2023-05-07T16:50:21;3.22;;;2.10;;
22939;SDS011;11636;52.086;5.090;2023-05-07T16:53:09;2.67;;;1.75;;
22939;SDS011;11636;52.086;5.090;2023-05-07T16:56:06;2.95;;;1.80;;
22939;SDS011;11636;52.086;5.090;2023-05-07T16:59:00;3.58;;;2.28;;
22939;SDS011;11636;52.086;5.090;2023-05-07T17:01:47;2.90;;;2.00;;
22939;SDS011;11636;52.086;5.090;2023-05-07T17:04:44;3.92;;;2.30;;
22939;SDS011;11636;52.086;5.090;2023-05-07T17:07:31;3.08;;;1.90;;
22939;SDS011;11636;52.086;5.090;2023-05-07T17:10:25;3.33;;;1.38;;
22939;SDS011;11636;52.086;5.090;2023-05-07T17:13:13;3.50;;;1.80;;
22939;SDS011;11636;52.086;5.090;2023-05-07T17:16:07;2.50;;;1.38;;
22939;SDS011;11636;52.086;5.090;2023-05-07T17:19:00;3.35;;;1.65;;
22939;SDS011;11636;52.086;5.090;2023-05-07T17:21:54;3.65;;;1.63;;
22939;SDS011;11636;52.086;5.090;2023-05-07T17:24:42;2.75;;;1.48;;